createdAt,value
2019-04-20T00:01:48.916Z,14.80
2019-04-20T00:04:41.123Z,14.70
2019-04-20T00:07:35.902Z,14.70
2019-04-20T00:10:27.359Z,14.70
2019-04-20T00:13:30.314Z,14.70
2019-04-20T00:16:10.210Z,14.70
2019-04-20T00:19:04.093Z,14.70
2019-04-20T00:22:02.937Z,14.60
2019-04-20T00:25:12.613Z,14.60
2019-04-20T00:28:25.031Z,14.50
2019-04-20T00:31:20.414Z,14.40
2019-04-20T00:34:03.767Z,14.40
2019-04-20T00:36:45.791Z,14.30
2019-04-20T00:39:38.245Z,14.20
2019-04-20T00:42:36.595Z,14.30
2019-04-20T00:45:27.231Z,14.30
2019-04-20T00:48:22.577Z,14.20
2019-04-20T00:51:24.000Z,14.20
2019-04-20T00:54:02.594Z,14.20
2019-04-20T00:57:09.361Z,14.20
2019-04-20T01:00:21.924Z,14.10
2019-04-20T01:02:50.601Z,14.10
2019-04-20T01:06:06.264Z,14.10
2019-04-20T01:08:48.731Z,14.00
2019-04-20T01:11:42.246Z,14.00
2019-04-20T01:14:39.695Z,14.00
2019-04-20T01:17:23.421Z,13.90
2019-04-20T01:20:15.302Z,13.90
2019-04-20T01:23:15.801Z,13.90
2019-04-20T01:26:09.524Z,13.80
2019-04-20T01:29:09.118Z,13.80
2019-04-20T01:32:00.733Z,13.80
2019-04-20T01:34:52.384Z,13.70
2019-04-20T01:37:46.969Z,13.70
2019-04-20T01:40:25.402Z,13.70
2019-04-20T01:43:18.459Z,13.60
2019-04-20T01:46:16.623Z,13.60
2019-04-20T01:49:08.283Z,13.50
2019-04-20T01:52:11.021Z,13.50
2019-04-20T01:55:28.774Z,13.40
2019-04-20T01:58:36.447Z,13.40
2019-04-20T02:01:34.282Z,13.30
2019-04-20T02:04:45.994Z,13.30
2019-04-20T02:07:40.048Z,13.20
2019-04-20T02:10:31.877Z,13.20
2019-04-20T02:13:17.779Z,13.10
2019-04-20T02:16:15.812Z,13.10
2019-04-20T02:19:16.251Z,13.00
2019-04-20T02:22:08.861Z,13.00
2019-04-20T02:24:44.848Z,13.00
2019-04-20T02:27:44.701Z,13.00
2019-04-20T02:31:06.489Z,12.90
2019-04-20T02:37:00.218Z,12.90
2019-04-20T02:39:46.877Z,12.90
2019-04-20T02:43:05.511Z,12.80
2019-04-20T02:48:22.204Z,12.80
2019-04-20T02:51:13.317Z,12.80
2019-04-20T02:57:05.648Z,12.70
2019-04-20T03:00:03.320Z,12.70
2019-04-20T03:02:23.378Z,12.70
2019-04-20T03:05:14.886Z,12.60
2019-04-20T03:08:11.517Z,12.60
2019-04-20T03:11:11.703Z,12.60
2019-04-20T03:13:59.027Z,12.60
2019-04-20T03:16:45.353Z,12.60
2019-04-20T03:19:38.600Z,12.60
2019-04-20T03:23:02.389Z,12.50
2019-04-20T03:25:53.487Z,12.50
2019-04-20T03:28:53.871Z,12.50
2019-04-20T03:37:42.565Z,12.40
2019-04-20T03:40:29.375Z,12.40
2019-04-20T03:43:05.623Z,12.30
2019-04-20T03:46:04.212Z,12.30
2019-04-20T03:49:05.890Z,12.30
2019-04-20T03:52:05.105Z,12.30
2019-04-20T03:55:01.441Z,12.20
2019-04-20T03:58:18.518Z,12.20
2019-04-20T04:01:47.740Z,12.20
2019-04-20T04:04:50.563Z,12.20
2019-04-20T04:07:32.342Z,12.10
2019-04-20T04:10:28.308Z,12.10
2019-04-20T04:13:11.986Z,12.10
2019-04-20T04:16:07.862Z,12.10
2019-04-20T04:19:05.914Z,12.10
2019-04-20T04:22:07.821Z,12.10
2019-04-20T04:24:58.873Z,12.10
2019-04-20T04:27:48.872Z,12.10
2019-04-20T04:30:37.868Z,12.10
2019-04-20T04:36:20.821Z,12.20
2019-04-20T04:39:29.360Z,12.20
2019-04-20T04:42:20.331Z,12.20
2019-04-20T04:44:53.623Z,12.30
2019-04-20T04:47:38.744Z,12.30
2019-04-20T04:50:31.812Z,12.30
2019-04-20T04:53:30.294Z,12.40
2019-04-20T04:56:18.055Z,12.40
2019-04-20T04:59:06.517Z,12.50
2019-04-20T05:02:02.157Z,12.60
2019-04-20T05:05:35.944Z,12.70
2019-04-20T05:08:23.364Z,12.90
2019-04-20T05:11:06.963Z,13.20
2019-04-20T05:14:03.196Z,13.50
2019-04-20T05:17:07.785Z,13.90
2019-04-20T05:20:02.517Z,14.30
2019-04-20T05:22:59.321Z,14.80
2019-04-20T05:26:13.778Z,15.30
2019-04-20T05:28:56.933Z,15.80
2019-04-20T05:31:46.333Z,16.40
2019-04-20T05:34:58.448Z,17.10
2019-04-20T05:37:48.871Z,17.70
2019-04-20T05:40:38.416Z,18.40
2019-04-20T05:43:42.895Z,19.00
2019-04-20T05:46:36.213Z,19.60
2019-04-20T05:49:31.665Z,20.20
2019-04-20T05:52:40.234Z,20.80
2019-04-20T05:55:21.081Z,21.30
2019-04-20T05:58:20.155Z,21.70
2019-04-20T06:01:10.868Z,22.10
2019-04-20T06:03:57.721Z,22.40
2019-04-20T06:06:55.209Z,22.80
2019-04-20T06:09:52.422Z,23.20
2019-04-20T06:12:35.802Z,23.70
2019-04-20T06:15:43.347Z,24.20
2019-04-20T06:18:34.781Z,24.60
2019-04-20T06:21:43.955Z,25.20
2019-04-20T06:24:47.865Z,25.70
2019-04-20T06:27:30.233Z,26.10
2019-04-20T06:30:13.672Z,26.50
2019-04-20T06:37:21.294Z,27.40
2019-04-20T06:40:29.534Z,28.10
2019-04-20T06:43:04.112Z,28.70
2019-04-20T06:46:05.545Z,29.20
2019-04-20T06:48:51.711Z,29.80
2019-04-20T06:51:49.091Z,30.20
2019-04-20T06:54:54.151Z,30.60
2019-04-20T06:57:50.282Z,31.10
2019-04-20T07:00:42.329Z,31.50
2019-04-20T07:09:47.391Z,32.90
2019-04-20T07:12:30.319Z,33.40
2019-04-20T07:15:19.012Z,34.00
2019-04-20T07:18:31.083Z,34.40
2019-04-20T07:21:37.822Z,34.80
2019-04-20T07:24:18.433Z,35.20
2019-04-20T07:27:06.135Z,35.60
2019-04-20T07:30:03.867Z,36.00
2019-04-20T07:35:46.217Z,36.90
2019-04-20T07:39:00.703Z,37.20
2019-04-20T07:41:41.971Z,37.60
2019-04-20T07:44:44.301Z,37.90
2019-04-20T07:47:40.568Z,38.40
2019-04-20T07:50:21.793Z,38.90
2019-04-20T07:56:46.495Z,39.80
2019-04-20T07:59:55.939Z,40.20
2019-04-20T08:03:12.755Z,40.50
2019-04-20T08:06:07.748Z,40.90
2019-04-20T08:09:08.293Z,41.30
2019-04-20T08:12:11.329Z,41.60
2019-04-20T08:15:13.385Z,42.00
2019-04-20T08:20:55.071Z,42.70
2019-04-20T08:23:47.347Z,43.00
2019-04-20T08:26:23.007Z,43.30
2019-04-20T08:29:50.143Z,43.60
2019-04-20T08:33:14.516Z,43.80
2019-04-20T08:36:10.849Z,44.00
2019-04-20T08:41:56.149Z,44.40
2019-04-20T08:45:12.567Z,44.60
2019-04-20T08:47:49.902Z,44.80
2019-04-20T08:50:34.071Z,44.90
2019-04-20T08:53:30.868Z,45.00
2019-04-20T08:56:14.285Z,45.10
2019-04-20T08:58:54.989Z,45.10
2019-04-20T09:01:46.794Z,45.10
2019-04-20T09:04:46.069Z,45.20
2019-04-20T09:07:35.408Z,45.30
2019-04-20T09:10:44.122Z,45.40
2019-04-20T09:13:25.976Z,45.40
2019-04-20T09:16:06.816Z,45.30
2019-04-20T09:19:04.641Z,45.30
2019-04-20T09:22:06.412Z,45.10
2019-04-20T09:25:19.359Z,45.10
2019-04-20T09:28:11.669Z,45.10
2019-04-20T09:31:11.929Z,45.10
2019-04-20T09:34:24.751Z,45.20
2019-04-20T09:37:38.187Z,45.20
2019-04-20T09:40:30.962Z,45.30
2019-04-20T09:43:30.375Z,45.40
2019-04-20T09:46:22.268Z,45.40
2019-04-20T09:49:23.666Z,45.30
2019-04-20T09:52:18.482Z,45.30
2019-04-20T09:55:10.917Z,45.30
2019-04-20T09:58:05.176Z,45.10
2019-04-20T10:00:59.524Z,45.00
2019-04-20T10:03:38.722Z,44.80
2019-04-20T10:06:34.542Z,44.70
2019-04-20T10:09:30.605Z,44.70
2019-04-20T10:12:15.658Z,44.80
2019-04-20T10:15:15.219Z,44.90
2019-04-20T10:18:01.612Z,45.00
2019-04-20T10:20:53.883Z,45.10
2019-04-20T10:23:45.231Z,45.10
2019-04-20T10:26:36.635Z,45.10
2019-04-20T10:29:28.436Z,45.10
2019-04-20T10:32:19.708Z,45.10
2019-04-20T10:35:14.712Z,45.00
2019-04-20T10:38:12.042Z,45.10
2019-04-20T10:41:11.660Z,45.00
2019-04-20T10:43:56.640Z,44.90
2019-04-20T10:46:49.162Z,44.90
2019-04-20T10:49:45.031Z,44.80
2019-04-20T10:52:32.300Z,44.60
2019-04-20T10:55:25.051Z,44.40
2019-04-20T10:58:17.693Z,44.30
2019-04-20T11:01:09.559Z,44.10
2019-04-20T11:04:00.815Z,44.00
2019-04-20T11:06:52.830Z,43.80
2019-04-20T11:09:44.813Z,43.70
2019-04-20T11:12:36.371Z,43.60
2019-04-20T11:15:28.254Z,43.30
2019-04-20T11:18:19.663Z,42.90
2019-04-20T11:21:11.402Z,42.50
2019-04-20T11:24:02.922Z,41.90
2019-04-20T11:26:54.340Z,41.10
2019-04-20T11:29:44.477Z,40.30
2019-04-20T11:32:36.056Z,39.40
2019-04-20T11:35:32.710Z,38.60
2019-04-20T11:38:19.823Z,37.80
2019-04-20T11:41:18.235Z,37.00
2019-04-20T11:44:02.885Z,36.30
2019-04-20T11:46:54.523Z,35.60
2019-04-20T11:49:45.848Z,34.90
2019-04-20T11:52:38.829Z,34.30
2019-04-20T11:55:28.680Z,33.80
2019-04-20T11:58:19.959Z,33.30
2019-04-20T12:01:51.873Z,33.00
2019-04-20T12:04:59.835Z,32.60
2019-04-20T12:07:56.435Z,32.10
2019-04-20T12:10:51.887Z,31.70
2019-04-20T12:13:40.689Z,31.40
2019-04-20T12:16:31.957Z,31.10
2019-04-20T12:19:22.899Z,30.80
2019-04-20T12:22:13.878Z,30.60
2019-04-20T12:25:05.851Z,30.40
2019-04-20T12:27:59.932Z,30.20
2019-04-20T12:30:48.838Z,30.10
2019-04-20T12:33:40.263Z,29.90
2019-04-20T12:36:31.427Z,29.90
2019-04-20T12:39:22.466Z,29.80
2019-04-20T12:42:14.727Z,29.70
2019-04-20T12:45:08.097Z,29.50
2019-04-20T12:48:01.692Z,29.40
2019-04-20T12:50:55.446Z,29.30
2019-04-20T12:53:48.762Z,29.10
2019-04-20T12:56:40.440Z,29.00
2019-04-20T12:59:31.663Z,28.80
2019-04-20T13:02:23.258Z,28.70
2019-04-20T13:05:15.386Z,28.60
2019-04-20T13:08:07.567Z,28.40
2019-04-20T13:11:13.270Z,28.30
2019-04-20T13:14:48.536Z,28.30
2019-04-20T13:17:40.080Z,28.20
2019-04-20T13:20:32.116Z,28.20
2019-04-20T13:23:23.062Z,28.10
2019-04-20T13:26:15.617Z,28.00
2019-04-20T13:29:06.831Z,27.90
2019-04-20T13:31:58.495Z,27.80
2019-04-20T13:34:49.943Z,27.80
2019-04-20T13:37:43.997Z,27.80
2019-04-20T13:40:35.875Z,27.70
2019-04-20T13:43:27.980Z,27.60
2019-04-20T13:46:20.734Z,27.50
2019-04-20T13:49:13.172Z,27.50
2019-04-20T13:52:04.638Z,27.40
2019-04-20T13:54:56.052Z,27.30
2019-04-20T13:58:00.017Z,27.20
2019-04-20T14:01:10.308Z,27.20
2019-04-20T14:04:20.979Z,27.10
2019-04-20T14:07:15.023Z,27.00
2019-04-20T14:10:05.932Z,26.90
2019-04-20T14:13:03.039Z,26.80
2019-04-20T14:15:49.216Z,26.80
2019-04-20T14:18:41.021Z,26.70
2019-04-20T14:21:32.163Z,26.60
2019-04-20T14:24:22.568Z,26.50
2019-04-20T14:27:14.992Z,26.50
2019-04-20T14:30:06.879Z,26.40
2019-04-20T14:32:58.720Z,26.40
2019-04-20T14:35:50.634Z,26.30
2019-04-20T14:38:44.842Z,26.30
2019-04-20T14:41:34.046Z,26.30
2019-04-20T14:44:25.720Z,26.20
2019-04-20T14:47:17.930Z,26.10
2019-04-20T14:50:09.833Z,26.10
2019-04-20T14:53:01.820Z,26.00
2019-04-20T14:55:53.403Z,26.00
2019-04-20T14:58:49.313Z,25.90
2019-04-20T15:01:44.944Z,25.90
2019-04-20T15:04:37.063Z,25.80
2019-04-20T15:07:28.911Z,25.80
2019-04-20T15:10:20.552Z,25.80
2019-04-20T15:13:11.377Z,25.70
2019-04-20T15:16:02.565Z,25.70
2019-04-20T15:19:11.800Z,25.60
2019-04-20T15:22:05.457Z,25.50
2019-04-20T15:24:56.164Z,25.50
2019-04-20T15:27:48.203Z,25.40
2019-04-20T15:30:40.493Z,25.30
2019-04-20T15:33:30.838Z,25.30
2019-04-20T15:36:22.205Z,25.20
2019-04-20T15:39:14.837Z,25.20
2019-04-20T15:42:07.401Z,25.10
2019-04-20T15:44:57.784Z,25.00
2019-04-20T15:47:50.081Z,25.00
2019-04-20T15:50:41.345Z,24.90
2019-04-20T15:53:31.898Z,24.90
2019-04-20T15:56:23.069Z,24.80
2019-04-20T15:59:14.710Z,24.80
2019-04-20T16:02:13.679Z,24.70
2019-04-20T16:05:22.115Z,24.70
2019-04-20T16:08:34.623Z,24.60
2019-04-20T16:11:26.678Z,24.60
2019-04-20T16:14:19.555Z,24.60
2019-04-20T16:17:12.475Z,24.50
2019-04-20T16:20:11.532Z,24.40
2019-04-20T16:22:56.394Z,24.40
2019-04-20T16:26:13.524Z,24.40
2019-04-20T16:29:05.844Z,24.30
2019-04-20T16:31:58.268Z,24.30
2019-04-20T16:34:50.695Z,24.30
2019-04-20T16:37:42.514Z,24.20
2019-04-20T16:40:34.050Z,24.10
2019-04-20T16:43:31.965Z,24.10
2019-04-20T16:46:20.547Z,24.00
2019-04-20T16:49:10.891Z,24.00
2019-04-20T16:52:02.810Z,23.90
2019-04-20T16:54:55.575Z,23.90
2019-04-20T16:57:48.426Z,23.80
2019-04-20T17:00:38.370Z,23.70
2019-04-20T17:03:42.042Z,23.70
2019-04-20T17:06:22.384Z,23.70
2019-04-20T17:09:13.777Z,23.60
2019-04-20T17:12:05.841Z,23.50
2019-04-20T17:14:57.793Z,23.50
2019-04-20T17:17:50.299Z,23.40
2019-04-20T17:20:41.032Z,23.30
2019-04-20T17:23:33.282Z,23.30
2019-04-20T17:26:32.757Z,23.20
2019-04-20T17:29:26.462Z,23.20
2019-04-20T17:32:21.325Z,23.10
2019-04-20T17:35:23.262Z,23.00
2019-04-20T17:38:04.785Z,23.00
2019-04-20T17:41:15.644Z,22.90
2019-04-20T17:44:05.915Z,22.80
2019-04-20T17:46:51.156Z,22.70
2019-04-20T17:49:51.597Z,22.70
2019-04-20T17:52:47.503Z,22.60
2019-04-20T17:55:32.295Z,22.50
2019-04-20T17:58:21.949Z,22.50
2019-04-20T18:01:47.838Z,22.40
2019-04-20T18:04:54.908Z,22.30
2019-04-20T18:07:42.542Z,22.20
2019-04-20T18:10:31.754Z,22.10
2019-04-20T18:13:12.102Z,22.00
2019-04-20T18:16:28.196Z,21.80
2019-04-20T18:19:15.229Z,21.70
2019-04-20T18:22:03.721Z,21.60
2019-04-20T18:25:16.367Z,21.50
2019-04-20T18:28:09.641Z,21.40
2019-04-20T18:30:52.599Z,21.30
2019-04-20T18:33:40.456Z,21.20
2019-04-20T18:36:37.891Z,21.10
2019-04-20T18:39:34.740Z,20.90
2019-04-20T18:42:25.084Z,20.90
2019-04-20T18:45:28.413Z,20.70
2019-04-20T18:48:18.372Z,20.60
2019-04-20T18:50:54.779Z,20.60
2019-04-20T18:53:48.256Z,20.40
2019-04-20T18:56:43.816Z,20.40
2019-04-20T18:59:40.058Z,20.30
2019-04-20T19:02:29.352Z,20.20
2019-04-20T19:05:15.909Z,20.20
2019-04-20T19:08:11.809Z,20.10
2019-04-20T19:11:06.875Z,20.00
2019-04-20T19:14:14.844Z,20.00
2019-04-20T19:17:17.014Z,19.90
2019-04-20T19:20:05.746Z,19.80
2019-04-20T19:22:58.031Z,19.70
2019-04-20T19:25:49.866Z,19.70
2019-04-20T19:28:48.342Z,19.60
2019-04-20T19:31:44.873Z,19.60
2019-04-20T19:34:41.772Z,19.50
2019-04-20T19:37:26.297Z,19.40
2019-04-20T19:40:18.248Z,19.40
2019-04-20T19:43:15.561Z,19.30
2019-04-20T19:46:35.600Z,19.30
2019-04-20T19:48:56.046Z,19.20
2019-04-20T19:52:13.255Z,19.20
2019-04-20T19:54:50.743Z,19.10
2019-04-20T19:57:42.145Z,19.10
2019-04-20T20:00:22.859Z,19.00
2019-04-20T20:03:13.246Z,19.00
2019-04-20T20:06:03.940Z,19.00
2019-04-20T20:09:00.380Z,18.90
2019-04-20T20:11:48.496Z,18.90
2019-04-20T20:14:44.102Z,18.90
2019-04-20T20:17:52.878Z,18.80
2019-04-20T20:20:41.088Z,18.70
2019-04-20T20:23:16.184Z,18.70
2019-04-20T20:26:09.095Z,18.60
2019-04-20T20:29:09.299Z,18.50
2019-04-20T20:32:06.138Z,18.50
2019-04-20T20:34:49.193Z,18.40
2019-04-20T20:37:44.784Z,18.40
2019-04-20T20:40:32.847Z,18.30
2019-04-20T20:43:37.629Z,18.20
2019-04-20T20:46:25.241Z,18.20
2019-04-20T20:49:22.700Z,18.10
2019-04-20T20:52:12.016Z,18.10
2019-04-20T20:54:56.482Z,18.00
2019-04-20T20:57:49.496Z,18.00
2019-04-20T21:00:43.305Z,17.90
2019-04-20T21:03:32.304Z,17.80
2019-04-20T21:06:18.881Z,17.80
2019-04-20T21:09:08.593Z,17.70
2019-04-20T21:12:06.973Z,17.70
2019-04-20T21:14:53.163Z,17.50
2019-04-20T21:18:08.544Z,17.60
2019-04-20T21:20:55.074Z,17.50
2019-04-20T21:23:44.773Z,17.40
2019-04-20T21:26:30.576Z,17.40
2019-04-20T21:29:19.232Z,17.30
2019-04-20T21:32:12.175Z,17.30
2019-04-20T21:35:03.450Z,17.30
2019-04-20T21:38:00.403Z,17.20
2019-04-20T21:40:49.550Z,17.20
2019-04-20T21:43:41.160Z,17.10
2019-04-20T21:46:39.929Z,17.10
2019-04-20T21:49:37.569Z,17.00
2019-04-20T21:52:23.336Z,17.00
2019-04-20T21:55:08.091Z,16.90
2019-04-20T21:58:00.821Z,16.90
2019-04-20T22:01:09.222Z,16.80
2019-04-20T22:03:50.444Z,16.80
2019-04-20T22:06:42.102Z,16.80
2019-04-20T22:09:40.436Z,16.70
2019-04-20T22:12:28.529Z,16.70
2019-04-20T22:15:26.260Z,16.60
2019-04-20T22:18:14.673Z,16.60
2019-04-20T22:21:09.477Z,16.50
2019-04-20T22:24:07.940Z,16.50
2019-04-20T22:26:54.938Z,16.40
2019-04-20T22:29:38.491Z,16.30
2019-04-20T22:32:30.085Z,16.30
2019-04-20T22:35:22.770Z,16.20
2019-04-20T22:38:20.602Z,16.10
2019-04-20T22:41:15.572Z,16.10
2019-04-20T22:44:11.566Z,16.00
2019-04-20T22:46:58.595Z,15.90
2019-04-20T22:50:18.787Z,15.80
2019-04-20T22:53:05.019Z,15.70
2019-04-20T22:56:07.113Z,15.70
2019-04-20T22:58:48.797Z,15.60
2019-04-20T23:01:38.646Z,15.60
2019-04-20T23:04:21.201Z,15.60
2019-04-20T23:07:12.809Z,15.60
2019-04-20T23:10:05.470Z,15.50
2019-04-20T23:12:59.505Z,15.40
2019-04-20T23:15:53.075Z,15.40
2019-04-20T23:18:40.377Z,15.30
2019-04-20T23:21:32.164Z,15.30
2019-04-20T23:24:23.729Z,15.20
2019-04-20T23:27:18.823Z,15.10
2019-04-20T23:30:14.696Z,15.00
2019-04-20T23:33:00.069Z,14.90
2019-04-20T23:35:56.504Z,14.90
2019-04-20T23:38:49.027Z,14.80
2019-04-20T23:41:35.742Z,14.80
2019-04-20T23:44:56.692Z,14.70
2019-04-20T23:47:57.866Z,14.70
2019-04-20T23:50:58.223Z,14.60
2019-04-20T23:53:51.224Z,14.60
2019-04-20T23:56:29.970Z,14.50
2019-04-20T23:59:27.758Z,14.50
